Time;durP1;ratioP1;P1;durP2;ratioP2;P2;SDS_P1;SDS_P2;PMS_P1;PMS_P2;Temp;Humidity;BMP_temperature;BMP_pressure;BME280_temperature;BME280_humidity;BME280_pressure;Samples;Min_cycle;Max_cycle;Signal;HPM_P1;HPM_P2
2023/10/09 00:01:44;;;;;;;;;;;22.70;50.10;;;;;;5094816;28;19931;-61
2023/10/09 00:04:11;;;;;;;;;;;22.70;50.10;;;;;;5093224;28;19924;-61
2023/10/09 00:06:38;;;;;;;;;;;22.70;50.10;;;;;;5093408;28;20283;-61
2023/10/09 00:09:30;;;;;;;;;;;22.70;50.10;;;;;;5094926;28;20409;-61
2023/10/09 00:11:57;;;;;;;;;;;22.70;50.10;;;;;;5094381;28;19978;-61
2023/10/09 00:14:25;;;;;;;;;;;22.70;50.10;;;;;;5094560;28;20376;-62
2023/10/09 00:17:17;;;;;;;;;;;22.70;50.10;;;;;;5094513;28;19924;-62
2023/10/09 00:19:42;;;;;;;;;;;22.70;50.10;;;;;;5094049;28;19928;-62
2023/10/09 00:22:25;;;;;;;;;;;22.70;50.10;;;;;;5094252;28;19928;-61
2023/10/09 00:25:10;;;;;;;;;;;22.70;50.00;;;;;;5094501;28;19925;-62
2023/10/09 00:27:39;;;;;;;;;;;22.70;50.00;;;;;;5094577;28;20015;-61
2023/10/09 00:30:06;;;;;;;;;;;22.70;50.00;;;;;;5094630;28;19964;-62
2023/10/09 00:32:33;;;;;;;;;;;22.70;50.00;;;;;;5093452;28;20331;-62
2023/10/09 00:35:36;;;;;;;;;;;22.70;50.00;;;;;;5094337;28;19923;-62
2023/10/09 00:37:47;;;;;;;;;;;22.70;50.00;;;;;;5094024;28;19924;-61
2023/10/09 00:40:23;;;;;;;;;;;22.70;50.00;;;;;;5094183;28;19963;-61
2023/10/09 00:42:51;;;;;;;;;;;22.70;50.00;;;;;;5093843;28;19932;-61
2023/10/09 00:45:24;;;;;;;;;;;22.70;50.00;;;;;;5094217;28;19959;-62
2023/10/09 00:47:56;;;;;;;;;;;22.70;50.10;;;;;;5094106;28;19925;-61
2023/10/09 00:50:23;;;;;;;;;;;22.70;50.10;;;;;;5094164;28;19928;-62
2023/10/09 00:52:54;;;;;;;;;;;22.70;50.10;;;;;;5094215;28;19924;-62
2023/10/09 00:55:21;;;;;;;;;;;22.70;50.00;;;;;;5093950;28;19924;-61
2023/10/09 00:57:50;;;;;;;;;;;22.70;50.00;;;;;;5093941;28;19970;-62
2023/10/09 01:00:45;;;;;;;;;;;22.70;50.60;;;;;;5092352;28;20384;-62
2023/10/09 01:03:19;;;;;;;;;;;22.70;50.00;;;;;;5093524;28;20433;-61
2023/10/09 01:05:58;;;;;;;;;;;22.70;50.00;;;;;;5094063;28;20354;-61
2023/10/09 01:08:53;;;;;;;;;;;22.70;50.00;;;;;;5093568;28;20015;-61
2023/10/09 01:11:18;;;;;;;;;;;22.70;50.00;;;;;;5093415;28;20292;-62
2023/10/09 01:13:52;;;;;;;;;;;22.70;50.00;;;;;;5093851;28;20027;-61
2023/10/09 01:16:22;;;;;;;;;;;22.70;50.60;;;;;;5093289;28;19934;-61
2023/10/09 01:18:51;;;;;;;;;;;22.70;50.00;;;;;;5093556;28;20544;-61
2023/10/09 01:21:21;;;;;;;;;;;22.70;50.00;;;;;;5093568;28;19931;-61
2023/10/09 01:24:08;;;;;;;;;;;22.70;50.00;;;;;;5093353;28;20369;-61
2023/10/09 01:26:44;;;;;;;;;;;22.70;50.00;;;;;;5091895;28;19970;-61
2023/10/09 01:29:16;;;;;;;;;;;22.70;50.00;;;;;;5093330;28;19931;-63
2023/10/09 01:31:56;;;;;;;;;;;22.70;50.00;;;;;;5092473;28;19967;-61
2023/10/09 01:34:24;;;;;;;;;;;22.70;50.00;;;;;;5092064;28;19924;-61
2023/10/09 01:36:55;;;;;;;;;;;22.70;50.00;;;;;;5093384;28;19925;-61
2023/10/09 01:39:39;;;;;;;;;;;22.70;50.00;;;;;;5093263;28;19969;-61
2023/10/09 01:42:06;;;;;;;;;;;22.70;50.00;;;;;;5093199;28;19924;-61
2023/10/09 01:44:43;;;;;;;;;;;22.70;50.00;;;;;;5092840;28;19935;-61
2023/10/09 01:47:18;;;;;;;;;;;22.70;49.90;;;;;;5093383;28;19924;-61
2023/10/09 01:49:48;;;;;;;;;;;22.70;49.90;;;;;;5092133;28;19931;-61
2023/10/09 01:52:16;;;;;;;;;;;22.70;49.90;;;;;;5093243;28;19977;-62
2023/10/09 01:54:50;;;;;;;;;;;22.70;49.90;;;;;;5093073;28;19928;-62
2023/10/09 01:57:24;;;;;;;;;;;22.80;49.90;;;;;;5093548;28;19985;-62
2023/10/09 01:59:55;;;;;;;;;;;22.70;49.80;;;;;;5093390;28;19924;-62
2023/10/09 02:02:33;;;;;;;;;;;22.80;49.80;;;;;;5092957;28;19924;-62
2023/10/09 02:05:24;;;;;;;;;;;22.70;49.80;;;;;;5092547;28;19924;-61
2023/10/09 02:07:53;;;;;;;;;;;22.70;49.80;;;;;;5093396;28;20361;-61
2023/10/09 02:10:31;;;;;;;;;;;22.70;49.80;;;;;;5082160;28;19977;-62
2023/10/09 02:12:59;;;;;;;;;;;22.70;49.90;;;;;;5081788;28;20353;-61
2023/10/09 02:15:51;;;;;;;;;;;22.70;49.90;;;;;;5080693;28;19970;-62
2023/10/09 02:18:19;;;;;;;;;;;22.70;49.90;;;;;;5074340;28;20001;-61
2023/10/09 02:20:47;;;;;;;;;;;22.70;49.90;;;;;;5072559;28;19925;-61
2023/10/09 02:23:20;;;;;;;;;;;22.70;49.90;;;;;;5075556;28;19925;-61
2023/10/09 02:25:53;;;;;;;;;;;22.70;49.90;;;;;;5075777;28;19924;-62
2023/10/09 02:28:19;;;;;;;;;;;22.70;49.90;;;;;;5078792;28;19976;-61
2023/10/09 02:30:51;;;;;;;;;;;22.70;49.90;;;;;;5096532;28;19924;-62
2023/10/09 02:33:18;;;;;;;;;;;22.70;49.90;;;;;;5096394;28;20026;-61
2023/10/09 02:35:51;;;;;;;;;;;22.70;49.90;;;;;;5096615;28;19925;-61
2023/10/09 02:38:22;;;;;;;;;;;22.70;49.90;;;;;;5095211;28;19925;-62
2023/10/09 02:41:20;;;;;;;;;;;22.70;49.90;;;;;;5096369;28;19928;-61
2023/10/09 02:43:47;;;;;;;;;;;22.70;49.90;;;;;;5096395;28;20018;-62
2023/10/09 02:46:18;;;;;;;;;;;22.70;49.90;;;;;;5095857;28;20376;-61
2023/10/09 02:48:52;;;;;;;;;;;22.70;49.90;;;;;;5096203;28;19931;-61
2023/10/09 02:51:32;;;;;;;;;;;22.70;49.90;;;;;;5096276;28;19928;-61
2023/10/09 02:54:07;;;;;;;;;;;22.70;49.90;;;;;;5096280;28;19932;-61
2023/10/09 02:56:43;;;;;;;;;;;22.70;49.90;;;;;;5095829;28;20322;-62
2023/10/09 02:59:10;;;;;;;;;;;22.70;49.90;;;;;;5096274;28;19955;-62
2023/10/09 03:01:39;;;;;;;;;;;22.70;49.90;;;;;;5096187;28;20017;-62
2023/10/09 03:04:14;;;;;;;;;;;22.70;49.90;;;;;;5094544;28;20019;-61
2023/10/09 03:06:51;;;;;;;;;;;22.70;49.90;;;;;;5095471;28;19924;-62
2023/10/09 03:09:26;;;;;;;;;;;22.70;49.90;;;;;;5095691;28;19928;-62
2023/10/09 03:11:55;;;;;;;;;;;22.70;49.90;;;;;;5095674;28;19930;-62
2023/10/09 03:14:28;;;;;;;;;;;22.70;49.90;;;;;;5095390;28;19924;-61
2023/10/09 03:16:59;;;;;;;;;;;22.70;49.80;;;;;;5095523;28;20003;-61
2023/10/09 03:19:29;;;;;;;;;;;22.70;49.80;;;;;;5094782;28;20198;-62
2023/10/09 03:22:00;;;;;;;;;;;22.70;49.70;;;;;;5095303;28;19960;-61
2023/10/09 03:24:33;;;;;;;;;;;22.70;49.70;;;;;;5095791;28;19924;-62
2023/10/09 03:27:00;;;;;;;;;;;22.70;49.70;;;;;;5095403;28;20455;-61
2023/10/09 03:29:27;;;;;;;;;;;22.70;49.80;;;;;;5095512;28;20258;-61
2023/10/09 03:31:56;;;;;;;;;;;22.70;49.70;;;;;;5085641;28;19956;-61
2023/10/09 03:34:27;;;;;;;;;;;22.70;49.80;;;;;;5074316;28;19924;-61
2023/10/09 03:37:04;;;;;;;;;;;22.70;49.80;;;;;;5074795;28;20398;-61
2023/10/09 03:39:41;;;;;;;;;;;22.70;49.80;;;;;;5075036;28;19955;-61
2023/10/09 03:42:15;;;;;;;;;;;22.70;49.80;;;;;;5074909;28;20420;-61
2023/10/09 03:44:48;;;;;;;;;;;22.70;49.80;;;;;;5081987;28;19932;-62
2023/10/09 03:47:16;;;;;;;;;;;22.70;49.80;;;;;;5083603;28;19924;-61
2023/10/09 03:49:43;;;;;;;;;;;22.70;49.80;;;;;;5075069;28;19924;-61
2023/10/09 03:52:17;;;;;;;;;;;22.60;49.80;;;;;;5074628;28;19970;-61
2023/10/09 03:54:47;;;;;;;;;;;22.70;49.90;;;;;;5090147;28;19924;-61
2023/10/09 03:57:18;;;;;;;;;;;22.70;49.80;;;;;;5081968;28;19925;-61
2023/10/09 03:59:47;;;;;;;;;;;22.60;49.80;;;;;;5074634;28;19928;-61
2023/10/09 04:02:14;;;;;;;;;;;22.60;49.90;;;;;;5074106;28;19931;-61
2023/10/09 04:04:46;;;;;;;;;;;22.70;49.90;;;;;;5073793;28;20365;-62
2023/10/09 04:07:18;;;;;;;;;;;22.60;49.80;;;;;;5074158;28;19925;-61
2023/10/09 04:09:47;;;;;;;;;;;22.60;49.80;;;;;;5074353;28;19970;-61
2023/10/09 04:12:24;;;;;;;;;;;22.60;50.40;;;;;;5073932;28;20399;-61
2023/10/09 04:14:58;;;;;;;;;;;22.60;49.80;;;;;;5073899;28;19978;-62
2023/10/09 04:17:35;;;;;;;;;;;22.60;49.90;;;;;;5072821;28;20280;-62
2023/10/09 04:23:04;;;;;;;;;;;22.60;49.80;;;;;;5073020;28;20381;-61
2023/10/09 04:25:50;;;;;;;;;;;22.60;49.80;;;;;;5075304;28;19924;-62
2023/10/09 04:28:21;;;;;;;;;;;22.60;49.80;;;;;;5094364;28;19924;-61
2023/10/09 04:30:55;;;;;;;;;;;22.60;49.80;;;;;;5094095;28;19924;-61
2023/10/09 04:33:42;;;;;;;;;;;22.60;49.80;;;;;;5094304;28;20014;-61
2023/10/09 04:36:21;;;;;;;;;;;22.60;49.80;;;;;;5094361;28;19946;-61
2023/10/09 04:44:29;;;;;;;;;;;22.40;49.50;;;;;;5093128;28;20326;-61
2023/10/09 04:50:01;;;;;;;;;;;22.10;50.00;;;;;;5077133;28;19969;-63
2023/10/09 04:55:18;;;;;;;;;;;21.50;50.60;;;;;;5075792;28;20352;-61
2023/10/09 04:57:47;;;;;;;;;;;21.10;49.70;;;;;;5073477;28;19971;-62
2023/10/09 05:03:10;;;;;;;;;;;20.50;48.80;;;;;;5092777;28;19963;-61
2023/10/09 05:05:49;;;;;;;;;;;20.20;49.70;;;;;;5092070;28;19940;-61
2023/10/09 05:08:19;;;;;;;;;;;19.90;50.90;;;;;;5093191;28;20014;-61
2023/10/09 05:11:15;;;;;;;;;;;19.60;50.00;;;;;;5094017;28;19928;-63
2023/10/09 05:13:43;;;;;;;;;;;19.30;50.00;;;;;;5092683;28;20315;-61
2023/10/09 05:16:26;;;;;;;;;;;19.00;50.70;;;;;;5092278;28;19924;-61
2023/10/09 05:18:59;;;;;;;;;;;18.80;51.20;;;;;;5093244;28;19931;-61
2023/10/09 05:21:47;;;;;;;;;;;18.70;50.70;;;;;;5093749;28;19931;-61
2023/10/09 05:24:18;;;;;;;;;;;18.50;51.50;;;;;;5090753;28;20525;-61
2023/10/09 05:26:52;;;;;;;;;;;18.30;51.70;;;;;;5078773;28;19931;-61
2023/10/09 05:29:34;;;;;;;;;;;18.20;51.90;;;;;;5077607;28;19924;-61
2023/10/09 05:32:15;;;;;;;;;;;18.10;52.00;;;;;;5075259;28;19974;-62
2023/10/09 05:37:33;;;;;;;;;;;17.90;52.80;;;;;;5066081;28;19924;-64
2023/10/09 05:42:59;;;;;;;;;;;17.70;53.60;;;;;;5072265;28;19990;-63
2023/10/09 05:46:35;;;;;;;;;;;17.70;53.30;;;;;;5068904;28;19932;-62
2023/10/09 05:51:41;;;;;;;;;;;17.60;53.90;;;;;;5074108;28;20204;-62
2023/10/09 06:04:49;;;;;;;;;;;17.40;52.60;;;;;;5075796;28;19932;-62
2023/10/09 06:07:23;;;;;;;;;;;17.30;53.60;;;;;;5070734;28;19928;-63
2023/10/09 06:09:56;;;;;;;;;;;17.30;53.30;;;;;;5080066;28;19982;-60
2023/10/09 06:12:33;;;;;;;;;;;17.30;52.90;;;;;;5082522;28;19988;-62
2023/10/09 06:15:19;;;;;;;;;;;17.30;53.10;;;;;;5079522;28;19935;-63
2023/10/09 06:17:59;;;;;;;;;;;17.30;53.20;;;;;;5070663;28;20273;-63
2023/10/09 06:21:06;;;;;;;;;;;17.30;54.10;;;;;;5075878;28;20475;-62
2023/10/09 06:23:44;;;;;;;;;;;17.30;53.80;;;;;;5080795;28;19928;-61
2023/10/09 06:26:23;;;;;;;;;;;17.30;54.10;;;;;;5079271;28;20404;-63
2023/10/09 06:28:49;;;;;;;;;;;17.30;53.80;;;;;;5073506;28;19927;-62
2023/10/09 06:31:56;;;;;;;;;;;17.30;53.80;;;;;;5080086;28;20368;-62
2023/10/09 06:34:15;;;;;;;;;;;17.30;54.00;;;;;;5077073;28;19924;-61
2023/10/09 06:36:52;;;;;;;;;;;17.30;54.20;;;;;;5074872;28;19932;-61
2023/10/09 06:42:30;;;;;;;;;;;17.30;54.00;;;;;;5069333;28;20023;-62
2023/10/09 06:44:55;;;;;;;;;;;17.30;53.80;;;;;;5071489;28;19931;-63
2023/10/09 06:47:24;;;;;;;;;;;17.30;54.10;;;;;;5069838;28;20017;-64
2023/10/09 06:55:48;;;;;;;;;;;17.20;54.30;;;;;;5073553;28;19943;-65
2023/10/09 06:58:15;;;;;;;;;;;17.20;53.00;;;;;;5068484;28;19954;-64
2023/10/09 07:00:54;;;;;;;;;;;17.20;53.70;;;;;;5073948;28;20297;-65
2023/10/09 07:03:29;;;;;;;;;;;17.20;54.10;;;;;;5070750;28;20002;-62
2023/10/09 07:06:23;;;;;;;;;;;17.20;54.40;;;;;;5071004;28;19930;-62
2023/10/09 07:11:57;;;;;;;;;;;17.20;53.50;;;;;;5069097;28;19928;-63
2023/10/09 07:20:09;;;;;;;;;;;17.30;52.80;;;;;;5072469;28;20024;-63
2023/10/09 07:22:39;;;;;;;;;;;17.30;53.40;;;;;;5077863;28;19974;-63
2023/10/09 07:25:15;;;;;;;;;;;17.30;54.00;;;;;;5070559;28;19982;-63
2023/10/09 07:27:46;;;;;;;;;;;17.30;54.20;;;;;;5070228;28;20469;-64
2023/10/09 07:33:17;;;;;;;;;;;17.30;53.30;;;;;;5076582;28;19928;-64
2023/10/09 07:35:57;;;;;;;;;;;17.20;54.20;;;;;;5070276;28;19936;-64
2023/10/09 07:38:28;;;;;;;;;;;17.30;54.40;;;;;;5073444;28;19932;-65
2023/10/09 07:40:59;;;;;;;;;;;17.30;53.60;;;;;;5076821;28;19998;-65
2023/10/09 07:43:31;;;;;;;;;;;17.30;53.80;;;;;;5079589;28;20674;-63
2023/10/09 07:48:56;;;;;;;;;;;17.40;54.10;;;;;;5076933;28;19936;-68
2023/10/09 07:51:30;;;;;;;;;;;17.40;54.00;;;;;;5072618;28;20031;-64
2023/10/09 07:54:06;;;;;;;;;;;17.40;54.00;;;;;;5074048;28;19932;-64
2023/10/09 07:56:53;;;;;;;;;;;17.40;53.60;;;;;;5073981;28;19936;-64
2023/10/09 07:59:22;;;;;;;;;;;17.50;53.60;;;;;;5074009;28;19932;-66
2023/10/09 08:01:58;;;;;;;;;;;17.50;53.50;;;;;;5079712;28;19962;-64
2023/10/09 08:07:25;;;;;;;;;;;17.50;53.30;;;;;;5072236;28;19932;-67
2023/10/09 08:12:59;;;;;;;;;;;17.50;52.90;;;;;;5075860;28;19937;-66
2023/10/09 08:15:51;;;;;;;;;;;17.50;52.30;;;;;;5079026;28;20022;-67
2023/10/09 08:18:27;;;;;;;;;;;17.60;53.30;;;;;;5070043;28;19965;-65
2023/10/09 08:23:48;;;;;;;;;;;17.60;52.60;;;;;;5076153;28;19975;-65
2023/10/09 08:26:28;;;;;;;;;;;17.60;52.50;;;;;;5073514;28;19975;-62
2023/10/09 08:31:46;;;;;;;;;;;17.60;53.10;;;;;;5075045;28;19925;-66
2023/10/09 08:34:26;;;;;;;;;;;17.60;52.60;;;;;;5072022;28;19927;-65
2023/10/09 08:36:56;;;;;;;;;;;17.60;52.70;;;;;;5073262;28;19954;-63
2023/10/09 08:39:30;;;;;;;;;;;17.60;53.10;;;;;;5074406;28;20422;-68
2023/10/09 08:42:01;;;;;;;;;;;17.60;53.10;;;;;;5071564;28;20012;-66
2023/10/09 08:44:33;;;;;;;;;;;17.60;52.50;;;;;;5084320;28;19939;-66
2023/10/09 08:47:00;;;;;;;;;;;17.60;52.30;;;;;;5073366;28;20078;-65
2023/10/09 08:49:28;;;;;;;;;;;17.60;53.30;;;;;;5076057;28;20011;-65
2023/10/09 08:51:55;;;;;;;;;;;17.60;53.50;;;;;;5077406;28;19928;-65
2023/10/09 08:54:22;;;;;;;;;;;17.60;52.50;;;;;;5074942;28;20262;-69
2023/10/09 08:56:49;;;;;;;;;;;17.60;52.30;;;;;;5078957;28;20466;-66
2023/10/09 08:59:18;;;;;;;;;;;17.70;53.30;;;;;;5072256;28;19939;-65
2023/10/09 09:01:49;;;;;;;;;;;17.60;53.40;;;;;;5076703;28;20031;-63
2023/10/09 09:04:39;;;;;;;;;;;17.70;52.70;;;;;;5077243;28;20073;-65
2023/10/09 09:07:23;;;;;;;;;;;17.70;52.80;;;;;;5072655;28;19924;-64
2023/10/09 09:10:02;;;;;;;;;;;17.70;53.30;;;;;;5074292;28;19925;-64
2023/10/09 09:12:37;;;;;;;;;;;17.70;52.90;;;;;;5075984;28;19931;-64
2023/10/09 09:15:12;;;;;;;;;;;17.80;52.60;;;;;;5072626;28;19994;-63
2023/10/09 09:17:41;;;;;;;;;;;17.80;52.80;;;;;;5072583;28;19932;-64
2023/10/09 09:20:27;;;;;;;;;;;17.90;53.40;;;;;;5073146;28;19983;-64
2023/10/09 09:22:56;;;;;;;;;;;17.90;52.80;;;;;;5079133;28;19935;-64
2023/10/09 09:25:24;;;;;;;;;;;17.90;52.80;;;;;;5076919;28;20406;-65
2023/10/09 09:27:55;;;;;;;;;;;17.90;52.80;;;;;;5074286;28;20344;-64
2023/10/09 09:30:24;;;;;;;;;;;18.00;52.40;;;;;;5073793;28;19939;-65
2023/10/09 09:35:37;;;;;;;;;;;18.00;52.10;;;;;;5079330;28;19971;-67
2023/10/09 09:38:06;;;;;;;;;;;18.00;52.40;;;;;;5079932;28;19924;-64
2023/10/09 09:40:41;;;;;;;;;;;18.00;52.30;;;;;;5078109;28;19954;-66
2023/10/09 09:43:17;;;;;;;;;;;18.00;52.10;;;;;;5079169;28;19924;-67
2023/10/09 09:45:49;;;;;;;;;;;18.00;51.90;;;;;;5081165;28;19981;-65
2023/10/09 09:48:16;;;;;;;;;;;18.00;52.00;;;;;;5078503;28;19954;-65
2023/10/09 09:50:43;;;;;;;;;;;18.00;52.30;;;;;;5072059;28;20003;-66
2023/10/09 09:53:16;;;;;;;;;;;18.00;52.10;;;;;;5075411;28;20570;-65
2023/10/09 09:55:57;;;;;;;;;;;18.00;51.70;;;;;;5076223;28;19978;-65
2023/10/09 09:58:32;;;;;;;;;;;18.00;52.00;;;;;;5072819;28;19936;-65
2023/10/09 10:01:01;;;;;;;;;;;18.00;52.30;;;;;;5078684;28;20808;-65
2023/10/09 10:03:35;;;;;;;;;;;18.00;51.80;;;;;;5080626;28;19924;-66
2023/10/09 10:06:09;;;;;;;;;;;18.10;52.10;;;;;;5078351;28;20801;-65
2023/10/09 10:08:39;;;;;;;;;;;18.10;52.40;;;;;;5080892;28;19939;-66
2023/10/09 10:11:13;;;;;;;;;;;18.10;52.20;;;;;;5079114;28;19932;-68
2023/10/09 10:14:01;;;;;;;;;;;18.10;51.70;;;;;;5087444;28;19924;-66
2023/10/09 10:16:34;;;;;;;;;;;18.10;52.10;;;;;;5076332;28;19927;-67
2023/10/09 10:19:23;;;;;;;;;;;18.10;51.80;;;;;;5075471;28;20322;-66
2023/10/09 10:21:52;;;;;;;;;;;18.20;52.00;;;;;;5086608;28;20095;-66
2023/10/09 10:24:52;;;;;;;;;;;18.10;52.20;;;;;;5080092;28;19928;-65
2023/10/09 10:27:24;;;;;;;;;;;18.10;52.00;;;;;;5083547;28;20003;-67
2023/10/09 10:30:14;;;;;;;;;;;18.10;51.60;;;;;;5066621;28;19951;-65
2023/10/09 10:32:57;;;;;;;;;;;18.10;52.50;;;;;;5080046;28;20025;-71
2023/10/09 10:38:39;;;;;;;;;;;18.10;52.10;;;;;;5084388;28;19951;-64
2023/10/09 10:41:11;;;;;;;;;;;18.10;52.50;;;;;;5077270;28;19924;-67
2023/10/09 10:43:54;;;;;;;;;;;18.10;51.90;;;;;;5076260;28;20019;-66
2023/10/09 10:46:34;;;;;;;;;;;18.10;51.60;;;;;;5077675;28;19925;-65
2023/10/09 10:51:49;;;;;;;;;;;18.10;52.10;;;;;;5081280;28;20296;-66
2023/10/09 10:54:45;;;;;;;;;;;18.10;51.50;;;;;;5076280;28;19989;-66
2023/10/09 10:57:28;;;;;;;;;;;18.10;51.30;;;;;;5075632;28;19932;-64
2023/10/09 11:00:12;;;;;;;;;;;18.00;52.10;;;;;;5077210;28;19936;-63
2023/10/09 11:02:43;;;;;;;;;;;18.00;52.40;;;;;;5075131;28;19936;-64
2023/10/09 11:05:23;;;;;;;;;;;18.00;51.50;;;;;;5069966;28;20030;-64
2023/10/09 11:07:56;;;;;;;;;;;18.00;51.60;;;;;;5071106;28;20264;-64
2023/10/09 11:10:28;;;;;;;;;;;18.00;52.00;;;;;;5078194;28;21838;-65
2023/10/09 11:13:53;;;;;;;;;;;18.00;52.40;;;;;;5076167;28;20331;-64
2023/10/09 11:15:46;;;;;;;;;;;18.00;52.40;;;;;;5079039;28;19927;-66
2023/10/09 11:18:24;;;;;;;;;;;18.00;52.10;;;;;;5080801;28;19932;-64
2023/10/09 11:21:18;;;;;;;;;;;18.00;52.40;;;;;;5075016;28;19932;-67
2023/10/09 11:23:57;;;;;;;;;;;18.00;52.30;;;;;;5076143;28;19931;-66
2023/10/09 11:26:26;;;;;;;;;;;18.10;52.20;;;;;;5073556;28;19967;-64
2023/10/09 11:29:23;;;;;;;;;;;18.10;52.30;;;;;;5078677;28;19940;-65
2023/10/09 11:32:03;;;;;;;;;;;18.10;51.90;;;;;;5079822;28;19925;-63
2023/10/09 11:34:31;;;;;;;;;;;18.10;51.60;;;;;;5077927;28;21726;-65
2023/10/09 11:36:59;;;;;;;;;;;18.10;51.70;;;;;;5077941;28;19930;-64
2023/10/09 11:39:36;;;;;;;;;;;18.10;52.10;;;;;;5077527;28;19932;-64
2023/10/09 11:42:04;;;;;;;;;;;18.20;51.50;;;;;;5071760;28;20027;-64
2023/10/09 11:44:35;;;;;;;;;;;18.10;51.90;;;;;;5077294;28;19928;-63
2023/10/09 11:47:23;;;;;;;;;;;18.10;51.70;;;;;;5073697;28;19937;-65
2023/10/09 11:50:12;;;;;;;;;;;18.20;51.50;;;;;;5075988;28;20380;-65
2023/10/09 11:53:08;;;;;;;;;;;18.10;51.90;;;;;;5075479;28;20330;-66
2023/10/09 11:55:36;;;;;;;;;;;18.20;52.30;;;;;;5070590;28;19964;-66
2023/10/09 11:58:04;;;;;;;;;;;18.20;52.50;;;;;;5081107;28;20369;-64
2023/10/09 12:00:44;;;;;;;;;;;18.20;52.90;;;;;;5074913;28;19932;-66
2023/10/09 12:03:14;;;;;;;;;;;18.20;52.80;;;;;;5073806;28;19928;-68
2023/10/09 12:05:44;;;;;;;;;;;18.30;52.60;;;;;;5078725;28;19932;-64
2023/10/09 12:08:15;;;;;;;;;;;18.30;52.60;;;;;;5075697;28;21321;-64
2023/10/09 12:10:42;;;;;;;;;;;18.30;53.10;;;;;;5069824;28;19944;-67
2023/10/09 12:13:09;;;;;;;;;;;18.40;52.80;;;;;;5071353;28;20616;-67
2023/10/09 12:15:37;;;;;;;;;;;18.40;53.80;;;;;;5072186;28;19928;-65
2023/10/09 12:18:14;;;;;;;;;;;18.40;53.50;;;;;;5074121;28;19932;-64
2023/10/09 12:20:47;;;;;;;;;;;18.40;52.70;;;;;;5080332;28;19927;-66
2023/10/09 12:23:14;;;;;;;;;;;18.40;52.50;;;;;;5075806;28;19924;-65
2023/10/09 12:25:44;;;;;;;;;;;18.40;52.90;;;;;;5073632;28;19932;-68
2023/10/09 12:28:14;;;;;;;;;;;18.40;52.40;;;;;;5061772;28;19961;-65
2023/10/09 12:30:41;;;;;;;;;;;18.40;52.60;;;;;;5068777;28;20307;-64
2023/10/09 12:33:09;;;;;;;;;;;18.40;52.90;;;;;;5068985;28;20334;-65
2023/10/09 12:35:39;;;;;;;;;;;18.40;52.90;;;;;;5074014;28;19931;-63
2023/10/09 12:38:10;;;;;;;;;;;18.40;53.00;;;;;;5070461;28;19967;-64
2023/10/09 12:40:38;;;;;;;;;;;18.40;52.70;;;;;;5073795;28;20019;-67
2023/10/09 12:43:05;;;;;;;;;;;18.30;52.60;;;;;;5071869;28;19938;-66
2023/10/09 12:45:34;;;;;;;;;;;18.40;53.40;;;;;;5070946;28;20006;-64
2023/10/09 12:48:03;;;;;;;;;;;18.40;53.20;;;;;;5070923;28;19986;-65
2023/10/09 12:50:33;;;;;;;;;;;18.40;53.60;;;;;;5075515;28;19933;-67
2023/10/09 12:53:07;;;;;;;;;;;18.40;52.60;;;;;;5072771;28;19928;-65
2023/10/09 12:55:35;;;;;;;;;;;18.40;52.90;;;;;;5072615;28;19924;-64
2023/10/09 12:58:08;;;;;;;;;;;18.50;53.20;;;;;;5070705;28;19989;-65
2023/10/09 13:00:39;;;;;;;;;;;18.50;53.50;;;;;;5073316;28;19932;-65
2023/10/09 13:03:21;;;;;;;;;;;18.50;53.40;;;;;;5072031;28;19928;-66
2023/10/09 13:05:54;;;;;;;;;;;18.50;52.60;;;;;;5073289;28;19936;-66
2023/10/09 13:08:23;;;;;;;;;;;18.50;52.80;;;;;;5070266;28;19931;-66
2023/10/09 13:11:00;;;;;;;;;;;18.50;53.30;;;;;;5070282;28;20024;-65
2023/10/09 13:13:41;;;;;;;;;;;18.50;52.90;;;;;;5077633;28;19931;-67
2023/10/09 13:16:20;;;;;;;;;;;18.40;52.60;;;;;;5071494;28;20334;-65
2023/10/09 13:18:50;;;;;;;;;;;18.50;53.00;;;;;;5075106;28;19932;-66
2023/10/09 13:21:19;;;;;;;;;;;18.50;52.80;;;;;;5073419;28;19974;-66
2023/10/09 13:23:47;;;;;;;;;;;18.50;53.20;;;;;;5076736;28;20042;-65
2023/10/09 13:26:17;;;;;;;;;;;18.50;53.10;;;;;;5070314;28;20971;-65
2023/10/09 13:28:59;;;;;;;;;;;18.60;53.70;;;;;;5074588;28;19924;-65
2023/10/09 13:31:27;;;;;;;;;;;18.60;53.80;;;;;;5070188;28;20247;-65
2023/10/09 13:33:55;;;;;;;;;;;18.60;53.50;;;;;;5072178;28;19925;-65
2023/10/09 13:36:31;;;;;;;;;;;18.60;53.10;;;;;;5072478;28;19963;-66
2023/10/09 13:41:57;;;;;;;;;;;18.50;52.60;;;;;;5069105;28;19932;-66
2023/10/09 13:44:28;;;;;;;;;;;18.50;53.40;;;;;;5074980;28;19932;-65
2023/10/09 13:46:59;;;;;;;;;;;18.50;53.00;;;;;;5072577;28;19924;-65
2023/10/09 13:49:30;;;;;;;;;;;18.50;52.90;;;;;;5071966;28;19952;-66
2023/10/09 13:51:58;;;;;;;;;;;18.40;53.80;;;;;;5070272;28;19930;-64
2023/10/09 13:54:39;;;;;;;;;;;18.40;53.40;;;;;;5071582;28;20537;-65
2023/10/09 13:57:07;;;;;;;;;;;18.50;53.00;;;;;;5071746;28;19961;-66
2023/10/09 13:59:36;;;;;;;;;;;18.40;53.60;;;;;;5065992;28;20342;-63
2023/10/09 14:02:09;;;;;;;;;;;18.40;53.40;;;;;;5069260;28;19931;-64
2023/10/09 14:04:37;;;;;;;;;;;18.40;53.50;;;;;;5076933;28;19932;-63
2023/10/09 14:07:05;;;;;;;;;;;18.50;60.90;;;;;;5074512;28;20007;-63
2023/10/09 14:09:45;;;;;;;;;;;18.70;67.30;;;;;;5080176;28;19953;-63
2023/10/09 14:12:15;;;;;;;;;;;18.90;70.60;;;;;;5074957;28;20011;-66
2023/10/09 14:14:53;;;;;;;;;;;19.20;72.00;;;;;;5078345;28;19953;-67
2023/10/09 14:17:28;;;;;;;;;;;19.40;72.10;;;;;;5073167;28;20387;-64
2023/10/09 14:20:25;;;;;;;;;;;19.70;72.60;;;;;;5074015;28;19932;-62
2023/10/09 14:22:45;;;;;;;;;;;20.00;72.50;;;;;;5077289;28;19932;-63
2023/10/09 14:25:15;;;;;;;;;;;20.20;72.30;;;;;;5075348;28;19928;-63
2023/10/09 14:27:42;;;;;;;;;;;20.40;72.10;;;;;;5077047;28;19935;-64
2023/10/09 14:30:18;;;;;;;;;;;20.60;72.20;;;;;;5072341;28;19928;-66
2023/10/09 14:32:51;;;;;;;;;;;20.70;72.10;;;;;;5077733;28;19933;-68
2023/10/09 14:35:21;;;;;;;;;;;20.90;71.80;;;;;;5078111;28;20018;-68
2023/10/09 14:37:48;;;;;;;;;;;21.00;71.90;;;;;;5080283;28;19932;-67
2023/10/09 14:40:20;;;;;;;;;;;21.20;71.90;;;;;;5081654;28;20018;-67
2023/10/09 14:42:52;;;;;;;;;;;21.20;72.00;;;;;;5095454;28;20020;-66
2023/10/09 14:45:27;;;;;;;;;;;21.30;71.90;;;;;;5075588;28;20219;-64
2023/10/09 14:47:54;;;;;;;;;;;21.40;71.90;;;;;;5086276;28;19928;-66
2023/10/09 14:50:22;;;;;;;;;;;21.50;71.70;;;;;;5086975;28;19928;-65
2023/10/09 14:52:50;;;;;;;;;;;21.50;71.20;;;;;;5089192;28;19931;-67
2023/10/09 14:55:20;;;;;;;;;;;21.60;71.10;;;;;;5083990;28;19985;-66
2023/10/09 14:57:49;;;;;;;;;;;21.70;71.30;;;;;;5085930;28;20011;-67
2023/10/09 15:00:22;;;;;;;;;;;21.70;70.60;;;;;;5083683;28;19928;-66
2023/10/09 15:02:51;;;;;;;;;;;21.70;70.20;;;;;;5095092;28;19924;-66
2023/10/09 15:05:18;;;;;;;;;;;21.70;69.30;;;;;;5095325;28;19931;-65
2023/10/09 15:07:45;;;;;;;;;;;21.80;68.70;;;;;;5095341;28;19930;-65
2023/10/09 15:10:18;;;;;;;;;;;21.80;68.50;;;;;;5094498;28;20376;-65
2023/10/09 15:12:48;;;;;;;;;;;21.90;68.10;;;;;;5094824;28;19924;-65
2023/10/09 15:15:16;;;;;;;;;;;21.90;67.70;;;;;;5093161;28;19977;-65
2023/10/09 15:17:45;;;;;;;;;;;22.00;68.40;;;;;;5095168;28;20404;-66
2023/10/09 15:20:13;;;;;;;;;;;22.00;67.80;;;;;;5095099;28;19969;-65
2023/10/09 15:22:41;;;;;;;;;;;22.10;67.60;;;;;;5094566;28;19969;-65
2023/10/09 15:25:09;;;;;;;;;;;22.10;66.30;;;;;;5094394;28;19928;-66
2023/10/09 15:27:39;;;;;;;;;;;22.10;66.80;;;;;;5110971;28;19963;-66
2023/10/09 15:30:08;;;;;;;;;;;22.20;67.30;;;;;;5114147;28;19927;-64
2023/10/09 15:32:35;;;;;;;;;;;22.20;66.80;;;;;;5115279;28;19928;-65
2023/10/09 15:35:02;;;;;;;;;;;22.20;67.00;;;;;;5114122;28;19953;-67
2023/10/09 15:37:30;;;;;;;;;;;22.30;67.30;;;;;;5107729;28;19931;-66
2023/10/09 15:39:57;;;;;;;;;;;22.30;66.80;;;;;;5094012;28;20014;-67
2023/10/09 15:42:25;;;;;;;;;;;22.30;66.40;;;;;;5095018;28;19928;-67
2023/10/09 15:44:54;;;;;;;;;;;22.40;66.50;;;;;;5094815;28;19969;-67
2023/10/09 15:47:21;;;;;;;;;;;22.50;66.50;;;;;;5090905;28;19924;-67
2023/10/09 15:49:52;;;;;;;;;;;22.50;66.50;;;;;;5082025;28;20022;-66
2023/10/09 15:52:20;;;;;;;;;;;22.50;66.30;;;;;;5073682;28;20376;-65
2023/10/09 15:54:48;;;;;;;;;;;22.50;66.00;;;;;;5074023;28;19975;-66
2023/10/09 15:57:16;;;;;;;;;;;22.60;65.70;;;;;;5074548;28;20378;-65
2023/10/09 15:59:43;;;;;;;;;;;22.60;65.20;;;;;;5077607;28;20007;-68
2023/10/09 16:02:10;;;;;;;;;;;22.60;64.60;;;;;;5083681;28;19929;-66
2023/10/09 16:04:39;;;;;;;;;;;22.70;64.10;;;;;;5074368;28;19924;-68
2023/10/09 16:07:07;;;;;;;;;;;22.70;63.40;;;;;;5072884;28;19933;-66
2023/10/09 16:09:39;;;;;;;;;;;22.70;62.50;;;;;;5072159;28;19947;-69
2023/10/09 16:12:07;;;;;;;;;;;22.70;61.80;;;;;;5074431;28;19924;-66
2023/10/09 16:14:35;;;;;;;;;;;22.70;61.20;;;;;;5073669;28;19936;-66
2023/10/09 16:17:02;;;;;;;;;;;22.70;60.40;;;;;;5103422;28;19949;-69